createdAt,value
2018-04-01T00:00:42.054Z,11.49
2018-04-01T00:03:09.135Z,11.66
2018-04-01T00:05:36.181Z,11.50
2018-04-01T00:08:03.241Z,11.69
2018-04-01T00:10:30.375Z,11.65
2018-04-01T00:12:57.429Z,11.69
2018-04-01T00:15:24.576Z,11.80
2018-04-01T00:17:51.624Z,11.77
2018-04-01T00:20:18.667Z,11.98
2018-04-01T00:22:45.724Z,11.53
2018-04-01T00:25:12.780Z,11.51
2018-04-01T00:27:39.862Z,11.53
2018-04-01T00:30:06.922Z,11.84
2018-04-01T00:32:37.978Z,11.58
2018-04-01T00:35:05.075Z,11.61
2018-04-01T00:37:32.122Z,11.20
2018-04-01T00:39:59.206Z,11.42
2018-04-01T00:42:26.327Z,11.44
2018-04-01T00:44:53.374Z,11.29
2018-04-01T00:47:20.422Z,11.43
2018-04-01T00:49:47.511Z,11.35
2018-04-01T00:52:14.558Z,10.99
2018-04-01T00:54:41.603Z,11.08
2018-04-01T00:57:08.655Z,10.98
2018-04-01T00:59:35.703Z,10.97
2018-04-01T01:02:02.800Z,11.19
2018-04-01T01:04:29.854Z,11.15
2018-04-01T01:06:56.934Z,11.08
2018-04-01T01:09:24.026Z,11.37
2018-04-01T01:11:51.074Z,11.15
2018-04-01T01:14:18.147Z,11.06
2018-04-01T01:16:45.230Z,11.20
2018-04-01T01:19:12.275Z,10.85
2018-04-01T01:21:39.326Z,10.81
2018-04-01T01:24:06.423Z,10.96
2018-04-01T01:26:33.462Z,11.08
2018-04-01T01:29:00.542Z,10.86
2018-04-01T01:31:27.654Z,10.84
2018-04-01T01:33:54.698Z,10.88
2018-04-01T01:36:21.746Z,11.13
2018-04-01T01:38:48.827Z,11.14
2018-04-01T01:41:15.894Z,10.83
2018-04-01T01:43:42.970Z,11.15
2018-04-01T01:46:10.023Z,11.13
2018-04-01T01:48:37.068Z,11.17
2018-04-01T01:51:04.175Z,11.19
2018-04-01T01:53:31.218Z,10.92
2018-04-01T01:55:58.367Z,11.32
2018-04-01T01:58:25.490Z,11.23
2018-04-01T02:00:52.586Z,10.91
2018-04-01T02:03:19.654Z,10.91
2018-04-01T02:05:46.738Z,11.16
2018-04-01T02:08:13.794Z,11.19
2018-04-01T02:10:40.838Z,11.06
2018-04-01T02:13:07.978Z,11.23
2018-04-01T02:15:35.027Z,11.26
2018-04-01T02:18:02.121Z,11.16
2018-04-01T02:20:29.231Z,11.25
2018-04-01T02:22:56.324Z,11.19
2018-04-01T02:25:23.394Z,11.30
2018-04-01T02:27:50.482Z,11.34
2018-04-01T02:30:17.527Z,11.37
2018-04-01T02:32:46.486Z,11.38
2018-04-01T02:35:13.608Z,11.55
2018-04-01T02:37:40.698Z,11.63
2018-04-01T02:40:07.760Z,11.65
2018-04-01T02:42:34.890Z,11.86
2018-04-01T02:45:01.968Z,12.01
2018-04-01T02:47:29.059Z,12.00
2018-04-01T02:49:56.210Z,12.08
2018-04-01T02:52:23.271Z,12.30
2018-04-01T02:54:50.356Z,12.09
2018-04-01T02:57:17.428Z,12.07
2018-04-01T02:59:44.477Z,12.01
2018-04-01T03:02:11.572Z,12.26
2018-04-01T03:04:38.709Z,12.19
2018-04-01T03:07:05.707Z,12.14
2018-04-01T03:09:32.844Z,12.25
2018-04-01T03:11:59.903Z,12.05
2018-04-01T03:14:26.954Z,12.05
2018-04-01T03:16:54.032Z,11.96
2018-04-01T03:19:21.080Z,12.12
2018-04-01T03:21:48.131Z,11.80
2018-04-01T03:24:15.295Z,11.91
2018-04-01T03:26:42.351Z,11.70
2018-04-01T03:29:09.398Z,11.82
2018-04-01T03:31:36.464Z,12.00
2018-04-01T03:34:03.572Z,11.79
2018-04-01T03:36:30.727Z,11.81
2018-04-01T03:38:57.770Z,11.77
2018-04-01T03:41:24.826Z,11.81
2018-04-01T03:43:52.554Z,11.81
2018-04-01T03:46:19.603Z,11.69
2018-04-01T03:48:46.660Z,11.87
2018-04-01T03:51:13.787Z,11.91
2018-04-01T03:53:40.851Z,12.00
2018-04-01T03:56:07.901Z,12.01
2018-04-01T03:58:34.958Z,11.82
2018-04-01T04:01:02.011Z,12.15
2018-04-01T04:03:29.103Z,11.92
2018-04-01T04:05:56.255Z,11.72
2018-04-01T04:08:23.327Z,11.79
2018-04-01T04:10:50.386Z,11.95
2018-04-01T04:13:17.486Z,11.65
2018-04-01T04:15:44.539Z,11.68
2018-04-01T04:18:11.591Z,11.76
2018-04-01T04:20:38.750Z,11.53
2018-04-01T04:23:05.810Z,11.74
2018-04-01T04:25:32.862Z,11.89
2018-04-01T04:27:59.955Z,11.72
2018-04-01T04:30:27.057Z,11.54
2018-04-01T04:38:39.443Z,11.64
2018-04-01T04:41:06.490Z,11.53
2018-04-01T04:43:33.538Z,11.44
2018-04-01T04:46:00.666Z,11.34
2018-04-01T04:48:27.707Z,11.55
2018-04-01T04:50:54.758Z,11.70
2018-04-01T04:53:21.827Z,11.82
2018-04-01T04:55:48.916Z,11.68
2018-04-01T04:58:16.085Z,11.91
2018-04-01T05:00:43.143Z,11.77
2018-04-01T05:03:10.206Z,12.04
2018-04-01T05:05:37.363Z,11.67
2018-04-01T05:08:04.412Z,11.65
2018-04-01T05:10:31.461Z,12.16
2018-04-01T05:12:58.559Z,12.00
2018-04-01T05:15:25.607Z,11.84
2018-04-01T05:17:52.663Z,11.73
2018-04-01T05:20:19.811Z,12.21
2018-04-01T05:22:46.870Z,12.46
2018-04-01T05:25:13.950Z,12.84
2018-04-01T05:27:41.014Z,13.46
2018-04-01T05:30:08.104Z,13.42
2018-04-01T05:32:35.155Z,13.84
2018-04-01T05:35:02.206Z,13.76
2018-04-01T05:37:29.287Z,14.22
2018-04-01T05:39:56.354Z,14.16
2018-04-01T05:42:23.411Z,14.05
2018-04-01T05:44:50.536Z,14.14
2018-04-01T05:47:17.578Z,14.42
2018-04-01T05:49:44.679Z,14.63
2018-04-01T05:52:11.766Z,15.09
2018-04-01T05:54:38.886Z,15.35
2018-04-01T05:57:06.045Z,16.05
2018-04-01T05:59:33.143Z,15.74
2018-04-01T06:02:00.195Z,15.78
2018-04-01T06:04:27.294Z,16.10
2018-04-01T06:06:54.362Z,15.79
2018-04-01T06:09:21.542Z,15.51
2018-04-01T06:11:48.694Z,16.42
2018-04-01T06:14:15.746Z,16.28
2018-04-01T06:16:42.831Z,16.34
2018-04-01T06:19:09.888Z,15.88
2018-04-01T06:21:36.974Z,15.65
2018-04-01T06:24:04.087Z,15.57
2018-04-01T06:26:31.146Z,15.02
2018-04-01T06:28:58.208Z,14.65
2018-04-01T06:31:25.315Z,14.34
2018-04-01T06:33:52.362Z,13.99
2018-04-01T06:36:19.451Z,13.50
2018-04-01T06:38:46.542Z,13.03
2018-04-01T06:41:13.587Z,12.68
2018-04-01T06:43:40.639Z,12.66
2018-04-01T06:46:07.755Z,12.67
2018-04-01T06:48:34.806Z,12.70
2018-04-01T06:51:01.851Z,12.93
2018-04-01T06:53:29.078Z,13.15
2018-04-01T06:55:56.159Z,13.15
2018-04-01T06:58:23.220Z,12.87
2018-04-01T07:00:50.296Z,13.10
2018-04-01T07:03:17.330Z,13.41
2018-04-01T07:05:44.382Z,13.60
2018-04-01T07:08:11.463Z,14.17
2018-04-01T07:10:38.507Z,14.50
2018-04-01T07:13:05.550Z,14.37
2018-04-01T07:15:32.643Z,14.58
2018-04-01T07:17:59.714Z,14.38
2018-04-01T07:20:26.843Z,13.75
2018-04-01T07:22:53.887Z,13.71
2018-04-01T07:25:20.930Z,14.09
2018-04-01T07:27:48.019Z,13.95
2018-04-01T07:30:15.067Z,14.06
2018-04-01T07:32:42.113Z,13.54
2018-04-01T07:35:09.207Z,13.24
2018-04-01T07:37:36.255Z,13.69
2018-04-01T07:40:03.303Z,13.37
2018-04-01T07:42:30.364Z,13.56
2018-04-01T07:44:57.420Z,13.51
2018-04-01T07:47:24.503Z,13.02
2018-04-01T07:49:51.571Z,12.63
2018-04-01T07:52:18.623Z,12.35
2018-04-01T07:54:45.683Z,12.25
2018-04-01T07:57:12.735Z,12.28
2018-04-01T07:59:39.814Z,12.37
2018-04-01T08:02:06.863Z,12.45
2018-04-01T08:04:33.918Z,12.34
2018-04-01T08:07:01.010Z,12.31
2018-04-01T08:09:28.059Z,12.88
2018-04-01T08:11:55.139Z,12.81
2018-04-01T08:14:22.187Z,12.81
2018-04-01T08:16:49.240Z,13.18
2018-04-01T08:19:16.347Z,13.44
2018-04-01T08:21:43.415Z,13.87
2018-04-01T08:24:10.457Z,14.26
2018-04-01T08:26:37.610Z,14.68
2018-04-01T08:29:04.665Z,15.45
2018-04-01T08:31:31.722Z,15.95
2018-04-01T08:33:58.808Z,16.68
2018-04-01T08:36:25.871Z,16.58
2018-04-01T08:38:52.930Z,16.61
2018-04-01T08:41:20.012Z,16.98
2018-04-01T08:43:47.091Z,17.16
2018-04-01T08:46:14.143Z,17.21
2018-04-01T08:48:41.191Z,17.39
2018-04-01T08:51:08.343Z,17.21
2018-04-01T08:53:35.433Z,17.54
2018-04-01T08:56:02.478Z,18.22
2018-04-01T08:58:29.588Z,18.70
2018-04-01T09:00:56.648Z,18.46
2018-04-01T09:03:23.731Z,19.35
2018-04-01T09:05:50.778Z,19.86
2018-04-01T09:08:17.825Z,20.39
2018-04-01T09:10:44.898Z,21.01
2018-04-01T09:13:11.942Z,21.31
2018-04-01T09:15:39.015Z,21.66
2018-04-01T09:18:06.099Z,21.80
2018-04-01T09:20:33.149Z,22.13
2018-04-01T09:23:00.191Z,21.90
2018-04-01T09:25:27.297Z,22.80
2018-04-01T09:27:54.392Z,22.91
2018-04-01T09:30:21.460Z,23.02
2018-04-01T09:32:48.606Z,23.68
2018-04-01T09:35:15.699Z,24.49
2018-04-01T09:37:42.767Z,23.91
2018-04-01T09:40:09.858Z,24.35
2018-04-01T09:42:36.906Z,25.14
2018-04-01T09:45:04.008Z,25.22
2018-04-01T09:47:31.064Z,24.57
2018-04-01T09:49:58.122Z,23.41
2018-04-01T09:52:25.237Z,24.69
2018-04-01T09:54:52.312Z,26.17
2018-04-01T09:57:19.366Z,26.15
2018-04-01T09:59:46.443Z,26.36
2018-04-01T10:02:14.122Z,26.06
2018-04-01T10:04:41.715Z,26.29
2018-04-01T10:07:09.355Z,26.46
2018-04-01T10:09:36.955Z,26.54
2018-04-01T10:12:04.539Z,26.93
2018-04-01T10:14:32.174Z,26.49
2018-04-01T10:16:59.760Z,26.30
2018-04-01T10:19:27.382Z,26.07
2018-04-01T10:21:54.968Z,24.92
2018-04-01T10:24:22.578Z,24.63
2018-04-01T10:26:50.199Z,24.79
2018-04-01T10:29:17.789Z,25.21
2018-04-01T10:31:45.383Z,25.62
2018-04-01T10:34:12.971Z,25.37
2018-04-01T10:36:40.570Z,25.67
2018-04-01T10:39:08.203Z,26.03
2018-04-01T10:41:35.790Z,26.15
2018-04-01T10:44:03.410Z,25.90
2018-04-01T10:46:31.090Z,26.06
2018-04-01T10:48:58.672Z,25.33
2018-04-01T10:51:26.574Z,25.29
2018-04-01T10:53:56.571Z,24.29
2018-04-01T10:56:23.638Z,25.07
2018-04-01T10:58:50.731Z,26.17
2018-04-01T11:01:17.783Z,27.45
2018-04-01T11:03:44.827Z,28.67
2018-04-01T11:06:11.910Z,27.06
2018-04-01T11:08:38.962Z,27.93
2018-04-01T11:11:06.011Z,26.93
2018-04-01T11:13:33.058Z,26.97
2018-04-01T11:16:00.119Z,26.78
2018-04-01T11:18:27.246Z,27.40
2018-04-01T11:20:54.295Z,27.47
2018-04-01T11:23:21.356Z,27.86
2018-04-01T11:25:48.434Z,27.37
2018-04-01T11:28:15.475Z,26.89
2018-04-01T11:30:42.843Z,26.05
2018-04-01T11:33:09.891Z,27.71
2018-04-01T11:35:36.935Z,26.64
2018-04-01T11:38:04.043Z,26.66
2018-04-01T11:40:31.079Z,27.16
2018-04-01T11:42:58.114Z,26.79
2018-04-01T11:45:25.204Z,27.11
2018-04-01T11:47:52.243Z,26.87
2018-04-01T11:50:19.283Z,26.91
2018-04-01T11:52:46.394Z,27.12
2018-04-01T11:55:13.487Z,27.50
2018-04-01T11:57:40.527Z,26.69
2018-04-01T12:00:07.624Z,26.39
2018-04-01T12:02:34.699Z,26.65
2018-04-01T12:05:01.781Z,26.90
2018-04-01T12:07:28.843Z,25.79
2018-04-01T12:09:55.895Z,25.39
2018-04-01T12:12:22.946Z,26.44
2018-04-01T12:14:50.027Z,25.73
2018-04-01T12:17:17.126Z,26.11
2018-04-01T12:19:44.218Z,26.31
2018-04-01T12:22:11.790Z,26.83
2018-04-01T12:24:38.858Z,26.10
2018-04-01T12:27:05.902Z,26.97
2018-04-01T12:29:32.979Z,25.97
2018-04-01T12:32:00.051Z,26.29
2018-04-01T12:34:27.142Z,26.27
2018-04-01T12:36:54.193Z,26.35
2018-04-01T12:39:21.240Z,26.58
2018-04-01T12:41:48.375Z,25.77
2018-04-01T12:44:15.438Z,26.00
2018-04-01T12:46:42.487Z,26.87
2018-04-01T12:49:09.538Z,26.10
2018-04-01T12:51:36.599Z,26.37
2018-04-01T12:54:03.696Z,26.07
2018-04-01T12:56:30.753Z,25.14
2018-04-01T12:58:57.807Z,25.51
2018-04-01T13:01:24.863Z,26.05
2018-04-01T13:03:51.935Z,25.22
2018-04-01T13:06:19.025Z,24.66
2018-04-01T13:08:46.068Z,24.20
2018-04-01T13:11:13.120Z,23.96
2018-04-01T13:13:40.190Z,24.63
2018-04-01T13:16:07.265Z,24.42
2018-04-01T13:18:34.346Z,23.75
2018-04-01T13:21:03.148Z,22.67
2018-04-01T13:23:30.218Z,22.04
2018-04-01T13:25:57.330Z,21.76
2018-04-01T13:28:24.374Z,21.44
2018-04-01T13:30:51.430Z,21.21
2018-04-01T13:33:18.529Z,21.16
2018-04-01T13:35:45.625Z,20.94
2018-04-01T13:38:12.703Z,20.77
2018-04-01T13:40:39.782Z,20.47
2018-04-01T13:43:06.831Z,19.91
2018-04-01T13:45:33.900Z,19.83
2018-04-01T13:48:01.008Z,19.60
2018-04-01T13:50:28.123Z,18.49
2018-04-01T13:52:55.169Z,16.75
2018-04-01T13:55:22.254Z,16.07
2018-04-01T13:57:50.243Z,15.83
2018-04-01T14:00:17.294Z,15.71
2018-04-01T14:02:44.431Z,15.47
2018-04-01T14:05:12.006Z,15.33
2018-04-01T14:07:39.052Z,15.33
2018-04-01T14:10:06.152Z,15.42
2018-04-01T14:12:33.204Z,15.24
2018-04-01T14:15:00.291Z,15.51
2018-04-01T14:17:27.368Z,15.52
2018-04-01T14:19:54.435Z,15.59
2018-04-01T14:22:21.535Z,15.70
2018-04-01T14:24:48.591Z,16.02
2018-04-01T14:27:15.632Z,16.20
2018-04-01T14:29:42.727Z,16.34
2018-04-01T14:32:09.819Z,16.53
2018-04-01T14:34:36.869Z,16.71
2018-04-01T14:37:03.965Z,16.65
2018-04-01T14:39:31.043Z,16.44
2018-04-01T14:41:58.103Z,16.43
2018-04-01T14:44:25.158Z,16.44
2018-04-01T14:46:52.226Z,16.34
2018-04-01T14:49:19.319Z,16.68
2018-04-01T14:51:48.960Z,16.74
2018-04-01T14:54:16.003Z,16.79
2018-04-01T14:56:43.384Z,16.58
2018-04-01T14:59:10.445Z,16.77
2018-04-01T15:01:37.496Z,16.77
2018-04-01T15:04:04.591Z,16.75
2018-04-01T15:06:31.661Z,16.64
2018-04-01T15:08:58.720Z,16.82
2018-04-01T15:11:25.774Z,16.71
2018-04-01T15:13:52.830Z,16.52
2018-04-01T15:16:19.975Z,16.37
2018-04-01T15:18:47.022Z,16.50
2018-04-01T15:21:14.110Z,16.16
2018-04-01T15:23:41.208Z,15.93
2018-04-01T15:26:08.260Z,15.10
2018-04-01T15:28:35.323Z,14.05
2018-04-01T15:31:05.474Z,13.60
2018-04-01T15:33:32.657Z,13.21
2018-04-01T15:35:59.731Z,13.04
2018-04-01T15:38:26.811Z,12.92
2018-04-01T15:40:53.939Z,13.10
2018-04-01T15:43:21.036Z,13.05
2018-04-01T15:45:48.119Z,13.09
2018-04-01T15:48:15.172Z,13.14
2018-04-01T15:50:42.293Z,13.13
2018-04-01T15:53:09.413Z,13.20
2018-04-01T15:55:36.474Z,13.48
2018-04-01T15:58:03.564Z,13.59
2018-04-01T16:00:30.611Z,13.61
2018-04-01T16:02:57.687Z,13.26
2018-04-01T16:05:24.782Z,13.16
2018-04-01T16:07:51.831Z,13.21
2018-04-01T16:10:18.929Z,13.36
2018-04-01T16:12:46.013Z,13.32
2018-04-01T16:15:13.060Z,13.45
2018-04-01T16:17:40.115Z,13.44
2018-04-01T16:20:07.219Z,13.27
2018-04-01T16:22:34.346Z,13.14
2018-04-01T16:25:01.403Z,13.19
2018-04-01T16:27:28.462Z,13.31
2018-04-01T16:29:55.555Z,13.36
2018-04-01T16:32:22.699Z,13.30
2018-04-01T16:34:49.753Z,13.25
2018-04-01T16:37:16.807Z,13.32
2018-04-01T16:39:43.899Z,13.36
2018-04-01T16:42:11.386Z,13.40
2018-04-01T16:44:38.663Z,13.22
2018-04-01T16:47:05.763Z,13.22
2018-04-01T16:49:32.859Z,13.11
2018-04-01T16:51:59.967Z,12.99
2018-04-01T16:54:27.111Z,12.90
2018-04-01T16:56:54.166Z,12.85
2018-04-01T16:59:21.231Z,12.80
2018-04-01T17:01:48.315Z,12.83
2018-04-01T17:04:15.376Z,12.76
2018-04-01T17:06:42.502Z,12.69
2018-04-01T17:09:09.562Z,12.72
2018-04-01T17:11:36.643Z,12.79
2018-04-01T17:14:03.745Z,12.79
2018-04-01T17:16:30.938Z,12.66
2018-04-01T17:18:58.025Z,12.64
2018-04-01T17:21:25.163Z,12.50
2018-04-01T17:23:52.197Z,12.42
2018-04-01T17:26:19.375Z,12.23
2018-04-01T17:28:46.431Z,12.26
2018-04-01T17:31:13.523Z,12.23
2018-04-01T17:33:40.664Z,12.22
2018-04-01T17:36:07.727Z,12.33
2018-04-01T17:38:34.788Z,12.37
2018-04-01T17:41:02.783Z,12.38
2018-04-01T17:43:29.837Z,12.29
2018-04-01T17:45:56.898Z,12.29
2018-04-01T17:48:23.981Z,12.18
2018-04-01T17:50:51.031Z,12.18
2018-04-01T17:53:18.132Z,12.08
2018-04-01T17:55:45.251Z,12.16
2018-04-01T17:58:12.372Z,12.13
2018-04-01T18:00:39.490Z,12.19
2018-04-01T18:03:06.548Z,12.25
2018-04-01T18:05:33.607Z,12.23
2018-04-01T18:08:00.754Z,12.31
2018-04-01T18:10:27.806Z,12.16
2018-04-01T18:12:54.971Z,12.21
2018-04-01T18:15:22.042Z,12.24
2018-04-01T18:17:49.104Z,12.31
2018-04-01T18:20:16.155Z,12.29
2018-04-01T18:22:43.223Z,12.26
2018-04-01T18:25:10.431Z,12.23
2018-04-01T18:27:37.482Z,12.32
2018-04-01T18:30:04.570Z,12.30
2018-04-01T18:32:31.692Z,12.35
2018-04-01T18:34:58.774Z,12.28
2018-04-01T18:37:25.944Z,12.36
2018-04-01T18:39:53.038Z,12.25
2018-04-01T18:42:20.121Z,12.39
2018-04-01T18:44:47.175Z,12.45
2018-04-01T18:47:14.218Z,12.36
2018-04-01T18:49:41.271Z,12.43
2018-04-01T18:52:08.350Z,12.35
2018-04-01T18:54:35.407Z,12.43
2018-04-01T18:57:02.512Z,12.44
2018-04-01T18:59:29.603Z,12.48
2018-04-01T19:01:56.655Z,12.38
2018-04-01T19:04:23.711Z,12.36
2018-04-01T19:06:50.810Z,12.39
2018-04-01T19:09:17.867Z,12.26
2018-04-01T19:11:44.910Z,12.19
2018-04-01T19:14:11.961Z,12.24
2018-04-01T19:16:51.348Z,12.24
2018-04-01T19:19:18.963Z,12.23
2018-04-01T19:21:46.563Z,12.05
2018-04-01T19:24:14.140Z,12.12
2018-04-01T19:26:41.776Z,12.16
2018-04-01T19:29:09.394Z,12.10
2018-04-01T19:31:37.004Z,12.17
2018-04-01T19:34:04.626Z,12.04
2018-04-01T19:36:32.215Z,12.08
2018-04-01T19:38:59.802Z,12.20
2018-04-01T19:41:27.434Z,12.12
2018-04-01T19:43:55.015Z,12.21
2018-04-01T19:46:22.611Z,12.02
2018-04-01T19:48:50.758Z,12.04
2018-04-01T19:51:18.342Z,12.05
2018-04-01T19:53:45.942Z,11.95
2018-04-01T19:56:13.527Z,11.78
2018-04-01T19:58:41.112Z,11.71
2018-04-01T20:01:08.731Z,11.72
2018-04-01T20:03:36.406Z,11.70
2018-04-01T20:06:04.002Z,11.58
2018-04-01T20:08:31.736Z,11.60
2018-04-01T20:10:59.442Z,11.57
2018-04-01T20:13:27.051Z,11.58
2018-04-01T20:15:54.662Z,11.62
2018-04-01T20:18:22.266Z,11.59
2018-04-01T20:20:49.867Z,11.61
2018-04-01T20:23:17.492Z,11.56
2018-04-01T20:25:45.071Z,11.53
2018-04-01T20:28:12.661Z,11.48
2018-04-01T20:30:40.263Z,11.42
2018-04-01T20:33:07.852Z,11.46
2018-04-01T20:35:35.483Z,11.42
2018-04-01T20:38:03.070Z,11.41
2018-04-01T20:40:30.678Z,11.27
2018-04-01T20:42:58.307Z,11.37
2018-04-01T20:45:25.894Z,11.26
2018-04-01T20:47:53.485Z,11.32
2018-04-01T20:50:21.175Z,11.18
2018-04-01T20:52:48.791Z,11.25
2018-04-01T20:55:16.391Z,11.24
2018-04-01T20:57:43.979Z,11.18
2018-04-01T21:00:11.608Z,11.01
2018-04-01T21:02:39.247Z,11.11
2018-04-01T21:05:06.836Z,11.14
2018-04-01T21:07:34.455Z,11.03
2018-04-01T21:10:02.083Z,11.01
2018-04-01T21:12:29.704Z,11.00
2018-04-01T21:14:57.305Z,11.02
2018-04-01T21:17:24.930Z,10.99
2018-04-01T21:19:52.506Z,10.92
2018-04-01T21:22:20.083Z,10.90
2018-04-01T21:24:47.689Z,10.81
2018-04-01T21:27:15.283Z,10.76
2018-04-01T21:29:42.896Z,10.80
2018-04-01T21:32:10.517Z,10.76
2018-04-01T21:34:38.096Z,10.85
2018-04-01T21:37:05.805Z,10.81
2018-04-01T21:39:33.417Z,10.80
2018-04-01T21:42:01.003Z,10.74
2018-04-01T21:44:28.787Z,10.69
2018-04-01T21:46:56.372Z,10.55
2018-04-01T21:49:23.970Z,10.62
2018-04-01T21:51:51.602Z,10.67
2018-04-01T21:54:19.270Z,10.65
2018-04-01T21:56:46.863Z,10.48
2018-04-01T21:59:14.527Z,10.48
2018-04-01T22:01:42.153Z,10.53
2018-04-01T22:04:09.778Z,10.43
2018-04-01T22:06:37.370Z,10.34
2018-04-01T22:09:05.819Z,10.27
2018-04-01T22:11:33.403Z,10.38
2018-04-01T22:14:01.039Z,10.48
2018-04-01T22:16:28.631Z,10.42
2018-04-01T22:18:56.228Z,10.38
2018-04-01T22:21:23.868Z,10.36
2018-04-01T22:23:51.455Z,10.51
2018-04-01T22:26:19.094Z,10.38
2018-04-01T22:28:46.721Z,10.38
2018-04-01T22:31:14.347Z,10.33
2018-04-01T22:33:41.947Z,10.46
2018-04-01T22:36:09.599Z,10.37
2018-04-01T22:38:37.235Z,10.27
2018-04-01T22:41:04.863Z,10.40
2018-04-01T22:43:32.514Z,10.32
2018-04-01T22:46:00.242Z,10.23
2018-04-01T22:48:27.838Z,10.27
2018-04-01T22:50:55.428Z,10.18
2018-04-01T22:53:23.019Z,10.05
2018-04-01T22:55:50.648Z,10.03
2018-04-01T22:58:18.310Z,9.89
2018-04-01T23:00:45.957Z,9.80
2018-04-01T23:03:13.607Z,9.91
2018-04-01T23:05:41.500Z,9.82
2018-04-01T23:08:09.143Z,9.79
2018-04-01T23:10:36.787Z,9.82
2018-04-01T23:13:04.391Z,9.91
2018-04-01T23:15:31.979Z,9.90
2018-04-01T23:17:59.627Z,9.91
2018-04-01T23:20:27.239Z,10.01
2018-04-01T23:22:54.838Z,9.79
2018-04-01T23:25:22.442Z,9.84
2018-04-01T23:27:50.053Z,9.88
2018-04-01T23:30:17.647Z,9.85
2018-04-01T23:32:45.230Z,9.81
2018-04-01T23:35:12.846Z,9.93
2018-04-01T23:37:40.419Z,9.87
2018-04-01T23:40:07.995Z,9.91
2018-04-01T23:42:35.628Z,10.15
2018-04-01T23:45:03.215Z,10.21
2018-04-01T23:47:30.798Z,10.10
2018-04-01T23:49:58.461Z,10.21
2018-04-01T23:52:26.034Z,10.27
2018-04-01T23:54:53.706Z,10.40
2018-04-01T23:57:21.331Z,10.46
2018-04-01T23:59:48.912Z,10.56
